»·PEaware :: N929X KCRQ-KSBA

N929X :: KCRQ-KSBA

FLIGHT INFORMATION

Flight Status: Arrived
Operator: Privately registered:
United States
More flights under this callsign
Pilot: Scott M. (16181)
Aircraft: Unknown
(EPIC)
More flights by this aircraft type
Origin: KCRQ McClellan-Palomar
United States
Destination: KSBA Santa Barbara Mun
United States
More flights between these airports :: More routes between these airports
Route:
File this flight plan on PilotEdge
Remarks:
Altitude:
(Current/Filed)
4,500ft
Speed:
(Current/Filed)
180kts
Departed: 20-Jun-18 05:08 PM
Arrived: 20-Jun-18 06:03 PM
Distance/Time
Traveled:
150nm/0:55
Distance/Time
To Go:
Arrived

Flight Plot

Page will automatically refresh every two minutes.


Map Options




Map Legend


Flown Route
Filed Route
Departure Airport
Arrival Airport
Navaid (VOR, NDB)
Fix

Horizontal Profiles

Position Reports

Time Latitude Longitude Heading Altitude Ground
Speed
20-Jun-18 16:58 33.127067 -117.279502 345 309ft 0kts
20-Jun-18 16:59 33.127067 -117.279502 345 309ft 0kts
20-Jun-18 17:00 33.127067 -117.279502 345 309ft 0kts
20-Jun-18 17:01 33.127067 -117.279502 345 309ft 0kts
20-Jun-18 17:02 33.127067 -117.279502 345 309ft 0kts
20-Jun-18 17:03 33.127067 -117.279502 345 309ft 0kts
20-Jun-18 17:04 33.127067 -117.279502 345 309ft 0kts
20-Jun-18 17:05 33.127839 -117.277422 78 309ft 24kts
20-Jun-18 17:06 33.128644 -117.272938 51 302ft 0kts
20-Jun-18 17:07 33.128644 -117.272938 51 302ft 0kts
20-Jun-18 17:08 33.127116 -117.289095 261 563ft 127kts
20-Jun-18 17:09 33.136798 -117.336925 283 1845ft 176kts
20-Jun-18 17:10 33.149006 -117.393982 281 3023ft 184kts
20-Jun-18 17:11 33.160337 -117.452153 280 4207ft 171kts
20-Jun-18 17:12 33.171828 -117.513108 281 4509ft 202kts
20-Jun-18 17:13 33.183936 -117.577876 281 4508ft 196kts
20-Jun-18 17:14 33.195499 -117.640075 281 4509ft 189kts
20-Jun-18 17:15 33.205831 -117.695896 281 4524ft 185kts
20-Jun-18 17:16 33.217099 -117.756956 281 4527ft 193kts
20-Jun-18 17:17 33.228712 -117.820030 281 4527ft 197kts
20-Jun-18 17:18 33.240430 -117.883895 281 4527ft 198kts
20-Jun-18 17:19 33.252251 -117.948393 280 4512ft 200kts
20-Jun-18 17:20 33.263960 -118.012728 280 4527ft 198kts
20-Jun-18 17:21 33.275613 -118.076799 280 4527ft 197kts
20-Jun-18 17:22 33.287219 -118.140861 280 4527ft 196kts
20-Jun-18 17:23 33.298712 -118.204490 280 4527ft 196kts
20-Jun-18 17:24 33.310184 -118.268146 280 4500ft 197kts
20-Jun-18 17:25 33.321660 -118.332089 280 4499ft 196kts
20-Jun-18 17:26 33.333046 -118.395716 280 4499ft 196kts
20-Jun-18 17:27 33.353492 -118.453610 322 4502ft 199kts
20-Jun-18 17:28 33.398995 -118.491585 325 4499ft 199kts
20-Jun-18 17:29 33.445125 -118.527847 326 4499ft 199kts
20-Jun-18 17:30 33.491701 -118.563958 326 4499ft 199kts
20-Jun-18 17:31 33.538247 -118.599960 326 4500ft 199kts
20-Jun-18 17:32 33.583651 -118.635093 326 4500ft 199kts
20-Jun-18 17:33 33.628910 -118.670150 325 4500ft 199kts
20-Jun-18 17:34 33.675739 -118.706383 323 4465ft 200kts
20-Jun-18 17:35 33.722166 -118.742499 323 4464ft 199kts
20-Jun-18 17:36 33.767701 -118.777976 324 4480ft 197kts
20-Jun-18 17:37 33.812660 -118.812959 325 4482ft 197kts
20-Jun-18 17:38 33.858484 -118.848684 325 4509ft 198kts
20-Jun-18 17:39 33.904795 -118.884785 324 4501ft 200kts
20-Jun-18 17:40 33.951332 -118.921158 324 4501ft 199kts
20-Jun-18 17:41 33.997207 -118.957072 324 4500ft 194kts
20-Jun-18 17:42 34.041941 -118.992137 324 4500ft 190kts
20-Jun-18 17:43 34.085751 -119.026517 324 4509ft 188kts
20-Jun-18 17:44 34.126382 -119.058946 323 4508ft 187kts
20-Jun-18 17:45 34.168869 -119.093870 323 4499ft 188kts
20-Jun-18 17:46 34.211395 -119.128892 323 4517ft 187kts
20-Jun-18 17:47 34.253367 -119.163492 322 4517ft 187kts
20-Jun-18 17:48 34.295759 -119.198532 322 4517ft 187kts
20-Jun-18 17:49 34.337379 -119.232970 322 4517ft 186kts
20-Jun-18 17:50 34.378499 -119.267049 323 4525ft 175kts
20-Jun-18 17:51 34.417102 -119.299054 323 4525ft 162kts
20-Jun-18 17:52 34.429174 -119.344942 271 4525ft 148kts
20-Jun-18 17:53 34.429968 -119.393802 269 4526ft 143kts
20-Jun-18 17:54 34.429985 -119.441327 269 4526ft 140kts
20-Jun-18 17:55 34.429715 -119.491110 268 4502ft 160kts
20-Jun-18 17:56 34.429270 -119.547584 268 4500ft 174kts
20-Jun-18 17:57 34.428730 -119.606072 267 4432ft 171kts
20-Jun-18 17:58 34.428184 -119.661370 267 3825ft 163kts
20-Jun-18 17:59 34.427831 -119.714903 270 2959ft 160kts
20-Jun-18 18:00 34.429695 -119.759102 266 2106ft 113kts
20-Jun-18 18:01 34.429211 -119.793644 263 1176ft 97kts
20-Jun-18 18:02 34.428212 -119.824724 263 291ft 91kts
20-Jun-18 18:03 34.428163 -119.846150 12 14ft 6kts
20-Jun-18 18:04 34.428410 -119.845683 68 14ft 0kts
20-Jun-18 18:05 34.428410 -119.845683 68 14ft 0kts
20-Jun-18 18:06 34.429827 -119.842080 63 14ft 15kts
20-Jun-18 18:07 34.432473 -119.835956 330 14ft 10kts

Navigation Log

Ident Type
1. KCRQ Airport
2. KSBA Airport